Suomigracht — PHBT — position and weather

sailwx.info

Track history (hours):
 
Tides and Currents Weather Stations Pressure Air Temp Water Temp Dewpoint Dewpoint Depression Visibility Wind Speed Wind Dir Waves Ship Positions

Suomigracht

Last reported at 2015-Aug-30 14:23 UTC. Time now 2015-Sep-02 12:54 UTC.
Position N 29°32' W 094°54'.

Length 173 m; beam 26 m.

Type: Cargo ship. MMSI: 246100000.

Date/timePositionNaut miles runAvg speedWind from/ knotsBaromVisibWave heightAir tempDewpointWater temp
2015-Aug-30 14:23N 29°32' W 094°54'1113.4
2015-Aug-30 13:33N 29°42' W 094°60'7 6.5
2015-Aug-30 12:33N 29°45' W 095°06'6 5.8
2015-Aug-30 11:33N 29°43' W 095°13'2 0.1
2015-Aug-29 15:29N 29°44' W 095°15'5 5.2
2015-Aug-29 14:33N 29°45' W 095°10'6 6.3
2015-Aug-29 13:33N 29°44' W 095°03'10 9.5
2015-Aug-29 12:33N 29°36' W 094°57'1616.1
2015-Aug-29 11:33N 29°22' W 094°48'252 6.7
2015-Aug-27 22:09N 29°57' W 090°01'0 0.0
2015-Aug-27 21:27N 29°57' W 090°01'0 0.0
2015-Aug-27 20:18N 29°57' W 090°01'0 0.0
2015-Aug-27 13:30N 29°57' W 090°01'0 0.0
2015-Aug-27 07:24N 29°57' W 090°01'0 0.0
2015-Aug-27 06:30N 29°57' W 090°01'59613.0
2015-Aug-25 08:28N 25°28' W 080°00'1516.2
2015-Aug-25 07:33N 25°43' W 080°00'1515.4
2015-Aug-25 06:34N 25°58' W 080°00'1515.0
2015-Aug-25 05:33N 26°13' W 079°60'1514.8
2015-Aug-25 04:33N 26°28' W 079°57'1514.9
2015-Aug-25 03:33N 26°42' W 079°50'74316.7
2015-Aug-23 07:09N 38°18' W 074°42'1118.2
2015-Aug-23 06:34N 38°29' W 074°46'1818.2
2015-Aug-23 05:34N 38°44' W 074°59'1515.2
2015-Aug-23 04:33N 38°58' W 075°07'1616.1
2015-Aug-23 03:33N 39°12' W 075°17'1918.6
2015-Aug-23 02:33N 39°26' W 075°32'1616.5
2015-Aug-23 01:33N 39°43' W 075°31'1111.5
2015-Aug-23 00:33N 39°51' W 075°20'0 0.0
2015-Aug-22 23:33N 39°51' W 075°21'0 0.0
2015-Aug-22 22:33N 39°51' W 075°21'0 0.0
2015-Aug-22 21:33N 39°51' W 075°21'0 0.0
2015-Aug-22 20:33N 39°51' W 075°21'0 0.0
2015-Aug-22 19:33N 39°51' W 075°21'0 0.0
2015-Aug-22 18:33N 39°51' W 075°21'0 0.0
2015-Aug-22 17:33N 39°51' W 075°21'0 0.0
2015-Aug-22 16:33N 39°51' W 075°21'0 0.0
2015-Aug-22 15:33N 39°51' W 075°21'0 0.0
2015-Aug-22 14:33N 39°51' W 075°21'0 0.0
2015-Aug-22 13:33N 39°51' W 075°21'0 0.0
2015-Aug-22 12:33N 39°51' W 075°21'0 0.0
2015-Aug-22 11:33N 39°51' W 075°21'0 0.0
2015-Aug-22 10:33N 39°51' W 075°21'0 0.0
2015-Aug-22 09:33N 39°51' W 075°21'0 0.0
2015-Aug-22 08:33N 39°51' W 075°21'0 0.0
2015-Aug-22 07:33N 39°51' W 075°21'0 0.0
2015-Aug-22 06:33N 39°51' W 075°21'0 0.0
2015-Aug-22 05:33N 39°51' W 075°21'0 0.0
2015-Aug-22 04:33N 39°51' W 075°21'0 0.0
2015-Aug-22 03:32N 39°51' W 075°21'0 0.0
2015-Aug-22 02:32N 39°51' W 075°21'0 0.0
2015-Aug-22 01:32N 39°51' W 075°21'0 0.0
2015-Aug-22 00:29N 39°51' W 075°21'0 0.0
2015-Aug-21 23:32N 39°51' W 075°21'0 0.0
2015-Aug-21 22:32N 39°51' W 075°21'0 0.0
2015-Aug-21 21:32N 39°51' W 075°21'0 0.0
2015-Aug-21 20:32N 39°51' W 075°21'0 0.0
2015-Aug-21 19:32N 39°51' W 075°21'0 0.0
2015-Aug-21 18:32N 39°51' W 075°21'0 0.0
2015-Aug-21 17:32N 39°51' W 075°21'0 0.0
2015-Aug-21 16:32N 39°51' W 075°21'0 0.0
2015-Aug-21 15:32N 39°51' W 075°21'0 0.0
2015-Aug-21 14:32N 39°51' W 075°21'0 0.0
2015-Aug-21 13:23N 39°51' W 075°21'0 0.0
2015-Aug-21 12:29N 39°51' W 075°21'0 0.0
2015-Aug-21 11:32N 39°51' W 075°21'0 0.0
2015-Aug-21 10:32N 39°51' W 075°21'0 0.0
2015-Aug-21 09:32N 39°51' W 075°21'0 0.0
2015-Aug-21 08:32N 39°51' W 075°21'0 0.0
2015-Aug-21 07:32N 39°51' W 075°21'0 0.0
2015-Aug-21 06:29N 39°51' W 075°21'0 0.0
2015-Aug-21 05:32N 39°51' W 075°21'0 0.0
2015-Aug-21 04:32N 39°51' W 075°21'4 4.3
2015-Aug-21 03:33N 39°48' W 075°25'1010.0
2015-Aug-21 02:33N 39°40' W 075°32'8 8.4
2015-Aug-21 01:33N 39°33' W 075°39'9 9.4
2015-Aug-21 00:34N 39°32' W 075°51'9 8.5
2015-Aug-20 23:34N 39°27' W 075°59'1313.0
2015-Aug-20 22:33N 39°19' W 076°13'1211.6
2015-Aug-20 21:33N 39°09' W 076°20'1111.3
2015-Aug-20 20:33N 39°14' W 076°33'1 1.0
2015-Aug-20 19:32N 39°15' W 076°34'0 0.0
2015-Aug-20 18:26N 39°15' W 076°34'0 0.0
2015-Aug-20 17:25N 39°15' W 076°34'0 0.0
2015-Aug-20 16:23N 39°15' W 076°34'0 0.0
2015-Aug-20 15:31N 39°15' W 076°34'0 0.0
2015-Aug-20 14:31N 39°15' W 076°34'  
Track history (hours):
 
Tides and Currents Weather Stations Pressure Air Temp Water Temp Dewpoint Dewpoint Depression Visibility Wind Speed Wind Dir Waves Ship Positions

Suomigracht

Last reported at 2015-Aug-30 14:23 UTC. Time now 2015-Sep-02 12:54 UTC.
Position N 29°32' W 094°54'.

Length 173 m; beam 26 m.

Type: Cargo ship. MMSI: 246100000.

Date/timePositionNaut miles runAvg speedWind from/ knotsBaromVisibWave heightAir tempDewpointWater temp
2015-Aug-30 14:23N 29°32' W 094°54'1113.4
2015-Aug-30 13:33N 29°42' W 094°60'7 6.5
2015-Aug-30 12:33N 29°45' W 095°06'6 5.8
2015-Aug-30 11:33N 29°43' W 095°13'2 0.1
2015-Aug-29 15:29N 29°44' W 095°15'5 5.2
2015-Aug-29 14:33N 29°45' W 095°10'6 6.3
2015-Aug-29 13:33N 29°44' W 095°03'10 9.5
2015-Aug-29 12:33N 29°36' W 094°57'1616.1
2015-Aug-29 11:33N 29°22' W 094°48'252 6.7
2015-Aug-27 22:09N 29°57' W 090°01'0 0.0
2015-Aug-27 21:27N 29°57' W 090°01'0 0.0
2015-Aug-27 20:18N 29°57' W 090°01'0 0.0
2015-Aug-27 13:30N 29°57' W 090°01'0 0.0
2015-Aug-27 07:24N 29°57' W 090°01'0 0.0
2015-Aug-27 06:30N 29°57' W 090°01'59613.0
2015-Aug-25 08:28N 25°28' W 080°00'1516.2
2015-Aug-25 07:33N 25°43' W 080°00'1515.4
2015-Aug-25 06:34N 25°58' W 080°00'1515.0
2015-Aug-25 05:33N 26°13' W 079°60'1514.8
2015-Aug-25 04:33N 26°28' W 079°57'1514.9
2015-Aug-25 03:33N 26°42' W 079°50'74316.7
2015-Aug-23 07:09N 38°18' W 074°42'1118.2
2015-Aug-23 06:34N 38°29' W 074°46'1818.2
2015-Aug-23 05:34N 38°44' W 074°59'1515.2
2015-Aug-23 04:33N 38°58' W 075°07'1616.1
2015-Aug-23 03:33N 39°12' W 075°17'1918.6
2015-Aug-23 02:33N 39°26' W 075°32'1616.5
2015-Aug-23 01:33N 39°43' W 075°31'1111.5
2015-Aug-23 00:33N 39°51' W 075°20'0 0.0
2015-Aug-22 23:33N 39°51' W 075°21'0 0.0
2015-Aug-22 22:33N 39°51' W 075°21'0 0.0
2015-Aug-22 21:33N 39°51' W 075°21'0 0.0
2015-Aug-22 20:33N 39°51' W 075°21'0 0.0
2015-Aug-22 19:33N 39°51' W 075°21'0 0.0
2015-Aug-22 18:33N 39°51' W 075°21'0 0.0
2015-Aug-22 17:33N 39°51' W 075°21'0 0.0
2015-Aug-22 16:33N 39°51' W 075°21'0 0.0
2015-Aug-22 15:33N 39°51' W 075°21'0 0.0
2015-Aug-22 14:33N 39°51' W 075°21'0 0.0
2015-Aug-22 13:33N 39°51' W 075°21'0 0.0
2015-Aug-22 12:33N 39°51' W 075°21'0 0.0
2015-Aug-22 11:33N 39°51' W 075°21'0 0.0
2015-Aug-22 10:33N 39°51' W 075°21'0 0.0
2015-Aug-22 09:33N 39°51' W 075°21'0 0.0
2015-Aug-22 08:33N 39°51' W 075°21'0 0.0
2015-Aug-22 07:33N 39°51' W 075°21'0 0.0
2015-Aug-22 06:33N 39°51' W 075°21'0 0.0
2015-Aug-22 05:33N 39°51' W 075°21'0 0.0
2015-Aug-22 04:33N 39°51' W 075°21'0 0.0
2015-Aug-22 03:32N 39°51' W 075°21'0 0.0
2015-Aug-22 02:32N 39°51' W 075°21'0 0.0
2015-Aug-22 01:32N 39°51' W 075°21'0 0.0
2015-Aug-22 00:29N 39°51' W 075°21'0 0.0
2015-Aug-21 23:32N 39°51' W 075°21'0 0.0
2015-Aug-21 22:32N 39°51' W 075°21'0 0.0
2015-Aug-21 21:32N 39°51' W 075°21'0 0.0
2015-Aug-21 20:32N 39°51' W 075°21'0 0.0
2015-Aug-21 19:32N 39°51' W 075°21'0 0.0
2015-Aug-21 18:32N 39°51' W 075°21'0 0.0
2015-Aug-21 17:32N 39°51' W 075°21'0 0.0
2015-Aug-21 16:32N 39°51' W 075°21'0 0.0
2015-Aug-21 15:32N 39°51' W 075°21'0 0.0
2015-Aug-21 14:32N 39°51' W 075°21'0 0.0
2015-Aug-21 13:23N 39°51' W 075°21'0 0.0
2015-Aug-21 12:29N 39°51' W 075°21'0 0.0
2015-Aug-21 11:32N 39°51' W 075°21'0 0.0
2015-Aug-21 10:32N 39°51' W 075°21'0 0.0
2015-Aug-21 09:32N 39°51' W 075°21'0 0.0
2015-Aug-21 08:32N 39°51' W 075°21'0 0.0
2015-Aug-21 07:32N 39°51' W 075°21'0 0.0
2015-Aug-21 06:29N 39°51' W 075°21'0 0.0
2015-Aug-21 05:32N 39°51' W 075°21'0 0.0
2015-Aug-21 04:32N 39°51' W 075°21'4 4.3
2015-Aug-21 03:33N 39°48' W 075°25'1010.0
2015-Aug-21 02:33N 39°40' W 075°32'8 8.4
2015-Aug-21 01:33N 39°33' W 075°39'9 9.4
2015-Aug-21 00:34N 39°32' W 075°51'9 8.5
2015-Aug-20 23:34N 39°27' W 075°59'1313.0
2015-Aug-20 22:33N 39°19' W 076°13'1211.6
2015-Aug-20 21:33N 39°09' W 076°20'1111.3
2015-Aug-20 20:33N 39°14' W 076°33'1 1.0
2015-Aug-20 19:32N 39°15' W 076°34'0 0.0
2015-Aug-20 18:26N 39°15' W 076°34'0 0.0
2015-Aug-20 17:25N 39°15' W 076°34'0 0.0
2015-Aug-20 16:23N 39°15' W 076°34'0 0.0
2015-Aug-20 15:31N 39°15' W 076°34'0 0.0
2015-Aug-20 14:31N 39°15' W 076°34'  

Dump ship's entire track history